Time;durP1;ratioP1;P1;durP2;ratioP2;P2;SDS_P1;SDS_P2;PMS_P1;PMS_P2;Temp;Humidity;BMP_temperature;BMP_pressure;BME280_temperature;BME280_humidity;BME280_pressure;Samples;Min_cycle;Max_cycle;Signal;HPM_P1;HPM_P2
2022/07/30 00:02:07;;;;;;;3.43;3.23;;;;;;;25.84;49.20;99417.69;5071364;28;20679;-69
2022/07/30 00:04:34;;;;;;;4.13;3.50;;;;;;;25.93;49.32;99418.63;5071845;28;20265;-68
2022/07/30 00:07:02;;;;;;;3.40;3.20;;;;;;;25.91;49.33;99412.66;5071409;28;20203;-68
2022/07/30 00:09:29;;;;;;;3.77;3.43;;;;;;;25.90;49.22;99414.59;5072013;28;20219;-67
2022/07/30 00:11:56;;;;;;;3.37;3.13;;;;;;;26.02;49.10;99425.03;5072219;28;20197;-67
2022/07/30 00:14:25;;;;;;;4.97;3.43;;;;;;;26.09;49.07;99411.84;5072499;28;20249;-68
2022/07/30 00:16:51;;;;;;;4.17;3.20;;;;;;;26.14;48.90;99422.63;5072190;28;20192;-68
2022/07/30 00:19:18;;;;;;;3.20;3.00;;;;;;;26.25;48.42;99421.38;5071076;28;20250;-67
2022/07/30 00:21:45;;;;;;;3.97;3.13;;;;;;;26.29;48.38;99415.00;5071453;28;20192;-68
2022/07/30 00:24:12;;;;;;;3.43;3.30;;;;;;;26.36;48.36;99423.59;5071107;28;20733;-67
2022/07/30 00:26:39;;;;;;;3.60;3.40;;;;;;;26.43;48.12;99417.75;5070950;28;20729;-67
2022/07/30 00:29:06;;;;;;;4.07;3.43;;;;;;;26.51;48.10;99414.34;5071249;28;20193;-67
2022/07/30 00:31:34;;;;;;;4.33;3.90;;;;;;;26.59;47.71;99410.94;5071510;28;20200;-67
2022/07/30 00:34:01;;;;;;;3.70;3.40;;;;;;;26.65;47.35;99405.09;5071187;28;20725;-67
2022/07/30 00:36:27;;;;;;;4.53;3.57;;;;;;;26.66;48.23;99405.91;5071511;28;20257;-67
2022/07/30 00:38:54;;;;;;;3.40;3.20;;;;;;;26.70;47.33;99412.38;5085559;28;20192;-67
2022/07/30 00:41:21;;;;;;;4.10;3.80;;;;;;;26.69;47.32;99408.00;5090867;28;20260;-67
2022/07/30 00:43:48;;;;;;;4.20;3.23;;;;;;;26.63;47.20;99411.94;5090985;28;20649;-67
2022/07/30 00:46:15;;;;;;;8.77;3.40;;;;;;;26.66;47.64;99411.34;5090058;28;20914;-67
2022/07/30 00:48:43;;;;;;;6.50;3.43;;;;;;;26.73;48.24;99400.81;5091889;28;20248;-66
2022/07/30 00:51:10;;;;;;;3.80;3.47;;;;;;;26.85;48.77;99391.03;5089956;28;20192;-69
2022/07/30 00:53:38;;;;;;;3.40;3.10;;;;;;;26.95;48.04;99399.00;5090877;28;20195;-66
2022/07/30 00:56:05;;;;;;;4.23;3.63;;;;;;;26.95;47.04;99406.38;5090127;28;20206;-67
2022/07/30 00:58:32;;;;;;;4.50;3.50;;;;;;;26.95;48.16;99409.91;5069722;28;20235;-67
2022/07/30 01:00:59;;;;;;;6.90;3.70;;;;;;;27.03;47.67;99400.22;5073831;28;20192;-67
2022/07/30 01:03:26;;;;;;;4.63;4.33;;;;;;;27.05;46.64;99392.53;5074252;28;20241;-66
2022/07/30 01:05:54;;;;;;;4.10;3.80;;;;;;;26.96;47.30;99388.91;5073637;28;20220;-66
2022/07/30 01:08:21;;;;;;;4.23;3.83;;;;;;;26.92;47.40;99388.72;5074151;28;20196;-67
2022/07/30 01:10:48;;;;;;;4.93;4.47;;;;;;;26.94;47.46;99396.56;5074449;28;20196;-68
2022/07/30 01:13:14;;;;;;;4.80;3.70;;;;;;;26.97;47.35;99398.69;5075317;28;20187;-68
2022/07/30 01:15:41;;;;;;;4.57;4.17;;;;;;;27.02;46.63;99398.59;5073299;28;20630;-67
2022/07/30 01:18:12;;;;;;;4.73;4.33;;;;;;;27.02;46.40;99398.59;5074746;28;20199;-67
2022/07/30 01:20:44;;;;;;;6.63;4.37;;;;;;;27.02;47.20;99393.13;5073767;28;20648;-67
2022/07/30 01:23:21;;;;;;;5.30;4.03;;;;;;;27.02;46.63;99398.59;5074063;28;20188;-67
2022/07/30 01:25:56;;;;;;;4.27;3.87;;;;;;;26.92;47.08;99393.34;5073593;28;20687;-67
2022/07/30 01:28:28;;;;;;;5.10;3.90;;;;;;;26.88;47.53;99400.53;5074139;28;20191;-71
2022/07/30 01:30:57;;;;;;;4.80;4.40;;;;;;;26.92;47.13;99404.25;5074281;28;20241;-67
2022/07/30 01:33:26;;;;;;;5.33;4.00;;;;;;;26.99;46.73;99404.66;5073931;28;20193;-67
2022/07/30 01:35:55;;;;;;;4.50;3.87;;;;;;;26.99;46.00;99399.22;5074159;28;20277;-67
2022/07/30 01:38:24;;;;;;;4.37;3.97;;;;;;;26.99;45.38;99400.00;5073773;28;20192;-68
2022/07/30 01:40:54;;;;;;;6.20;3.50;;;;;;;26.90;45.81;99403.78;5073803;28;20192;-67
2022/07/30 01:43:23;;;;;;;4.47;4.07;;;;;;;26.76;45.96;99395.59;5074105;28;20229;-68
2022/07/30 01:45:52;;;;;;;4.90;3.90;;;;;;;26.81;46.05;99397.41;5073950;28;20300;-67
2022/07/30 01:48:23;;;;;;;4.37;3.97;;;;;;;26.80;46.75;99390.34;5074167;28;20223;-67
2022/07/30 01:50:53;;;;;;;5.23;3.50;;;;;;;26.86;46.56;99394.59;5073817;28;20542;-67
2022/07/30 01:53:24;;;;;;;6.03;3.70;;;;;;;26.83;46.66;99384.28;5073530;28;20267;-68
2022/07/30 01:55:54;;;;;;;4.30;4.00;;;;;;;26.91;46.33;99394.47;5073178;28;20245;-67
2022/07/30 01:58:24;;;;;;;4.30;4.00;;;;;;;26.93;45.89;99384.88;5073463;28;20867;-67
2022/07/30 02:00:55;;;;;;;3.77;3.57;;;;;;;26.97;45.75;99390.50;5073996;28;20196;-67
2022/07/30 02:03:22;;;;;;;6.93;4.47;;;;;;;26.97;45.70;99395.97;5073943;28;20249;-67
2022/07/30 02:05:53;;;;;;;4.70;4.27;;;;;;;26.92;46.34;99394.19;5073030;28;20572;-68
2022/07/30 02:08:27;;;;;;;4.83;4.43;;;;;;;26.92;45.93;99407.00;5073814;28;20248;-67
2022/07/30 02:11:00;;;;;;;4.53;4.27;;;;;;;26.74;45.50;99402.47;5073535;28;20184;-67
2022/07/30 02:13:29;;;;;;;4.50;4.20;;;;;;;26.46;46.31;99396.16;5072978;28;20195;-68
2022/07/30 02:15:59;;;;;;;4.67;4.37;;;;;;;26.34;46.31;99397.75;5072337;28;20196;-67
2022/07/30 02:18:32;;;;;;;4.80;4.50;;;;;;;26.14;47.23;99398.13;5072035;28;20200;-68
2022/07/30 02:21:02;;;;;;;4.67;4.27;;;;;;;25.99;47.48;99398.38;5072984;28;20184;-68
2022/07/30 02:23:31;;;;;;;4.57;4.17;;;;;;;25.94;49.27;99403.94;5072547;28;20616;-68
2022/07/30 02:26:00;;;;;;;4.70;4.30;;;;;;;26.06;49.18;99390.66;5072291;28;20765;-68
2022/07/30 02:28:30;;;;;;;4.60;4.30;;;;;;;26.18;48.69;99397.25;5072574;28;20192;-68
2022/07/30 02:30:59;;;;;;;4.57;4.13;;;;;;;26.21;48.04;99383.00;5072590;28;20274;-68
2022/07/30 02:33:30;;;;;;;5.20;4.40;;;;;;;26.29;47.77;99389.69;5072551;28;20630;-69
2022/07/30 02:35:59;;;;;;;4.60;4.20;;;;;;;26.24;48.29;99387.03;5071748;28;20188;-67
2022/07/30 02:38:28;;;;;;;4.33;4.07;;;;;;;26.25;49.13;99388.69;5072165;28;20203;-68
2022/07/30 02:41:00;;;;;;;4.70;4.30;;;;;;;26.36;48.59;99390.09;5072149;28;20729;-71
2022/07/30 02:43:29;;;;;;;7.97;4.50;;;;;;;26.43;48.41;99395.97;5072365;28;20188;-67
2022/07/30 02:45:58;;;;;;;6.13;4.27;;;;;;;26.49;48.35;99389.28;5071986;28;20726;-67
2022/07/30 02:48:27;;;;;;;6.87;4.40;;;;;;;26.51;47.49;99389.81;5071269;28;20191;-67
2022/07/30 02:50:55;;;;;;;7.47;4.47;;;;;;;26.51;47.88;99382.44;5071758;28;20258;-67
2022/07/30 02:53:23;;;;;;;5.93;4.67;;;;;;;26.46;48.17;99382.53;5071512;28;20246;-68
2022/07/30 02:55:53;;;;;;;5.23;4.30;;;;;;;26.45;48.10;99380.13;5072336;28;20196;-67
2022/07/30 02:58:25;;;;;;;4.40;4.10;;;;;;;26.36;48.36;99384.63;5072415;28;20255;-69
2022/07/30 03:00:54;;;;;;;5.43;4.33;;;;;;;26.27;48.60;99379.09;5073121;28;20551;-68
2022/07/30 03:03:27;;;;;;;6.33;4.10;;;;;;;26.34;49.11;99381.41;5072480;28;20196;-67
2022/07/30 03:05:55;;;;;;;6.93;4.40;;;;;;;26.35;48.75;99367.50;5072948;28;20230;-67
2022/07/30 03:08:22;;;;;;;6.23;4.50;;;;;;;26.33;49.00;99371.66;5072405;28;20664;-67
2022/07/30 03:10:51;;;;;;;5.00;4.50;;;;;;;26.24;49.28;99365.25;5073241;28;20215;-68
2022/07/30 03:13:20;;;;;;;5.03;4.70;;;;;;;26.26;49.34;99368.50;5072084;28;20199;-68
2022/07/30 03:15:50;;;;;;;5.30;4.30;;;;;;;26.14;49.79;99370.91;5071394;28;20200;-68
2022/07/30 03:18:19;;;;;;;7.73;4.33;;;;;;;26.00;50.27;99361.91;5071488;28;20737;-68
2022/07/30 03:20:50;;;;;;;6.20;4.37;;;;;;;25.92;50.89;99357.91;5071232;28;20738;-68
2022/07/30 03:23:19;;;;;;;5.30;4.97;;;;;;;26.01;50.82;99358.06;5071003;28;20234;-68
2022/07/30 03:26:00;;;;;;;5.80;4.50;;;;;;;26.06;50.35;99363.41;5072015;28;20578;-68
2022/07/30 03:28:30;;;;;;;5.87;4.50;;;;;;;26.11;50.16;99371.50;5071471;28;20743;-68
2022/07/30 03:30:59;;;;;;;4.33;4.13;;;;;;;26.14;50.95;99369.00;5070631;28;20610;-69
2022/07/30 03:33:27;;;;;;;4.63;4.33;;;;;;;26.20;50.40;99373.22;5070938;28;20249;-67
2022/07/30 03:35:54;;;;;;;9.33;4.60;;;;;;;26.26;50.70;99369.31;5071799;28;20196;-67
2022/07/30 03:38:22;;;;;;;5.10;4.80;;;;;;;26.33;50.33;99374.38;5071213;28;20222;-67
2022/07/30 03:40:50;;;;;;;5.27;4.60;;;;;;;26.27;49.81;99370.09;5071955;28;20218;-67
2022/07/30 03:43:18;;;;;;;4.93;4.63;;;;;;;26.31;50.16;99379.28;5071453;28;20196;-68
2022/07/30 03:45:47;;;;;;;5.23;4.23;;;;;;;26.40;50.22;99380.19;5069121;28;20223;-67
2022/07/30 03:48:16;;;;;;;6.10;4.80;;;;;;;26.47;49.96;99376.00;5069123;28;20199;-67
2022/07/30 03:50:44;;;;;;;5.10;4.43;;;;;;;26.49;48.82;99379.19;5070518;28;20245;-68
2022/07/30 03:53:11;;;;;;;5.27;3.97;;;;;;;26.18;49.23;99382.81;5068550;28;20192;-71
2022/07/30 03:55:37;;;;;;;5.03;4.47;;;;;;;25.90;50.18;99381.09;5069560;28;20191;-68
2022/07/30 03:58:06;;;;;;;7.27;5.07;;;;;;;25.84;50.05;99382.31;5069573;28;20292;-68
2022/07/30 04:00:33;;;;;;;8.53;5.17;;;;;;;25.91;51.21;99385.44;5069157;28;20607;-68
2022/07/30 04:03:00;;;;;;;5.33;4.97;;;;;;;26.00;50.04;99381.75;5070324;28;20281;-68
2022/07/30 04:05:28;;;;;;;5.00;4.60;;;;;;;26.16;49.54;99391.28;5070740;28;20200;-68
2022/07/30 04:07:55;;;;;;;5.43;4.70;;;;;;;26.79;49.07;99397.69;5070488;28;20200;-68
2022/07/30 04:10:21;;;;;;;8.07;4.80;;;;;;;27.63;46.75;99404.31;5071037;28;20249;-66
2022/07/30 04:12:48;;;;;;;5.13;4.70;;;;;;;28.50;44.31;99408.16;5071095;28;20737;-67
2022/07/30 04:15:15;;;;;;;9.07;4.17;;;;;;;29.22;42.13;99414.81;5071094;28;20619;-67
2022/07/30 04:17:47;;;;;;;5.40;4.87;;;;;;;29.92;40.02;99412.59;5071983;28;20226;-67
2022/07/30 04:20:20;;;;;;;6.30;4.80;;;;;;;30.49;39.13;99416.69;5070585;28;20188;-67
2022/07/30 04:22:50;;;;;;;4.87;4.50;;;;;;;31.01;37.60;99414.53;5071652;28;20249;-66
2022/07/30 04:25:17;;;;;;;4.93;4.43;;;;;;;31.47;37.09;99414.41;5071545;28;20199;-66
2022/07/30 04:27:44;;;;;;;6.23;4.70;;;;;;;31.93;35.98;99417.75;5070149;28;20224;-66
2022/07/30 04:30:12;;;;;;;4.43;4.07;;;;;;;32.20;35.16;99425.41;5071281;28;20254;-66
2022/07/30 04:32:39;;;;;;;5.00;4.50;;;;;;;32.55;35.30;99428.59;5071257;28;20196;-66
2022/07/30 04:35:06;;;;;;;5.50;4.93;;;;;;;32.93;34.36;99427.19;5075395;28;20192;-66
2022/07/30 04:37:33;;;;;;;5.30;4.90;;;;;;;33.06;34.08;99434.28;5074197;28;20225;-66
2022/07/30 04:40:01;;;;;;;7.40;5.90;;;;;;;33.52;33.39;99429.41;5074524;28;20257;-67
2022/07/30 04:42:28;;;;;;;5.73;5.00;;;;;;;33.51;32.80;99433.31;5073626;28;20237;-66
2022/07/30 04:44:56;;;;;;;8.67;4.87;;;;;;;33.87;32.51;99430.47;5074085;28;20196;-66
2022/07/30 04:47:24;;;;;;;5.93;5.53;;;;;;;34.22;32.10;99420.41;5074588;28;20220;-67
2022/07/30 04:49:53;;;;;;;5.30;4.70;;;;;;;34.32;31.43;99431.78;5073720;28;20250;-67
2022/07/30 04:52:21;;;;;;;6.00;5.20;;;;;;;34.61;31.38;99430.53;5074372;28;20192;-66
2022/07/30 04:54:53;;;;;;;5.40;5.00;;;;;;;34.81;30.71;99432.25;5074447;28;20221;-66
2022/07/30 04:57:22;;;;;;;5.30;4.80;;;;;;;34.84;30.99;99428.78;5074043;28;20285;-66
2022/07/30 04:59:49;;;;;;;5.18;4.70;;;;;;;35.27;29.86;99434.16;5073485;28;20682;-66
2022/07/30 05:02:18;;;;;;;5.53;4.28;;;;;;;35.35;29.87;99430.44;5074355;28;20192;-67
2022/07/30 05:04:47;;;;;;;5.18;4.82;;;;;;;35.74;29.55;99429.31;5074919;28;20557;-66
2022/07/30 05:07:14;;;;;;;8.30;5.25;;;;;;;35.54;29.48;99427.69;5073543;28;20695;-66
2022/07/30 05:09:41;;;;;;;5.82;5.43;;;;;;;35.61;29.25;99436.13;5073688;28;20245;-66
2022/07/30 05:12:09;;;;;;;39.53;8.18;;;;;;;35.43;29.45;99432.97;5074308;28;20230;-66
2022/07/30 05:14:37;;;;;;;11.32;5.75;;;;;;;35.26;29.78;99422.31;5073472;28;20196;-65
2022/07/30 05:17:03;;;;;;;7.90;4.97;;;;;;;35.52;29.38;99430.03;5074234;28;20256;-66
2022/07/30 05:19:30;;;;;;;5.20;4.80;;;;;;;35.87;29.00;99426.06;5073882;28;20215;-66
2022/07/30 05:21:57;;;;;;;5.93;4.95;;;;;;;36.11;28.75;99427.72;5073542;28;20679;-66
2022/07/30 05:24:23;;;;;;;5.10;4.63;;;;;;;36.10;28.56;99423.34;5073712;28;20191;-66
2022/07/30 05:26:51;;;;;;;6.05;4.65;;;;;;;36.55;28.02;99423.41;5073953;28;20273;-66
2022/07/30 05:29:18;;;;;;;5.68;5.05;;;;;;;36.32;28.66;99430.91;5073913;28;20666;-66
2022/07/30 05:31:46;;;;;;;4.60;4.35;;;;;;;36.51;28.31;99433.63;5074217;28;20192;-66
2022/07/30 05:34:13;;;;;;;4.80;4.50;;;;;;;36.88;28.40;99431.91;5074827;28;20188;-66
2022/07/30 05:36:39;;;;;;;6.18;4.40;;;;;;;36.76;28.46;99434.88;5073852;28;20199;-65
2022/07/30 05:39:06;;;;;;;5.15;4.75;;;;;;;36.43;28.79;99427.19;5074196;28;20273;-66
2022/07/30 05:41:33;;;;;;;7.13;4.45;;;;;;;36.79;28.27;99426.63;5073854;28;20197;-66
2022/07/30 05:44:00;;;;;;;4.95;4.35;;;;;;;36.67;28.31;99426.00;5072843;28;20196;-65
2022/07/30 05:46:27;;;;;;;4.60;4.30;;;;;;;36.76;28.51;99426.56;5073057;28;20735;-66
2022/07/30 05:48:55;;;;;;;5.05;4.75;;;;;;;37.04;27.49;99429.81;5073148;28;20656;-68
2022/07/30 05:51:22;;;;;;;5.15;4.70;;;;;;;37.28;27.48;99423.88;5072858;28;20664;-66
2022/07/30 05:53:49;;;;;;;6.05;5.20;;;;;;;37.11;27.42;99429.91;5074897;28;20192;-66
2022/07/30 05:56:16;;;;;;;5.13;4.53;;;;;;;36.79;28.20;99425.84;5072956;28;20680;-67
2022/07/30 05:58:43;;;;;;;10.52;4.72;;;;;;;36.90;27.81;99426.78;5073214;28;20273;-66
2022/07/30 06:01:10;;;;;;;5.70;4.88;;;;;;;36.71;28.12;99426.91;5073982;28;20283;-66
2022/07/30 06:03:36;;;;;;;5.38;4.82;;;;;;;36.69;28.47;99429.22;5065796;28;20668;-65
2022/07/30 06:06:05;;;;;;;5.07;4.72;;;;;;;37.02;27.37;99426.59;5073127;28;20257;-65
2022/07/30 06:08:32;;;;;;;7.65;4.55;;;;;;;36.83;28.22;99429.47;5072184;28;20188;-65
2022/07/30 06:10:59;;;;;;;6.20;5.15;;;;;;;36.96;27.26;99434.41;5072086;28;20192;-65
2022/07/30 06:13:25;;;;;;;5.40;5.03;;;;;;;36.94;27.40;99422.91;5072412;28;20245;-65
2022/07/30 06:15:52;;;;;;;4.88;4.15;;;;;;;36.93;27.50;99423.28;5070740;28;20192;-67
2022/07/30 06:18:19;;;;;;;5.32;4.82;;;;;;;37.34;26.63;99436.22;5071400;28;20196;-66
2022/07/30 06:20:48;;;;;;;6.05;4.40;;;;;;;37.10;26.94;99425.53;5071442;28;20199;-66
2022/07/30 06:23:16;;;;;;;10.95;4.40;;;;;;;37.11;27.00;99429.91;5072097;28;20195;-66
2022/07/30 06:25:43;;;;;;;8.07;4.82;;;;;;;37.07;26.99;99429.06;5071251;28;20195;-64
2022/07/30 06:28:09;;;;;;;5.10;4.50;;;;;;;36.94;27.63;99422.09;5071112;28;20227;-64
2022/07/30 06:30:36;;;;;;;5.50;5.00;;;;;;;37.31;27.14;99428.63;5070707;28;20204;-68
2022/07/30 06:33:03;;;;;;;7.15;5.03;;;;;;;37.23;26.85;99438.03;5071227;28;20230;-65
2022/07/30 06:35:29;;;;;;;4.07;3.85;;;;;;;37.40;26.15;99437.50;5071333;28;20666;-65
2022/07/30 06:37:56;;;;;;;8.48;4.57;;;;;;;37.32;26.71;99430.25;5072112;28;20245;-64
2022/07/30 06:40:24;;;;;;;5.60;4.45;;;;;;;37.19;26.68;99431.63;5072886;28;20196;-65
2022/07/30 06:42:51;;;;;;;5.75;4.43;;;;;;;37.38;26.79;99439.84;5071613;28;20245;-66
2022/07/30 06:45:18;;;;;;;4.57;4.15;;;;;;;37.55;26.48;99438.50;5071819;28;20246;-66
2022/07/30 06:47:45;;;;;;;4.50;4.28;;;;;;;37.58;26.90;99438.53;5072018;28;20651;-65
2022/07/30 06:50:12;;;;;;;5.75;4.28;;;;;;;37.79;26.10;99432.50;5071784;28;20192;-66
2022/07/30 06:52:38;;;;;;;8.23;4.75;;;;;;;37.73;26.42;99434.00;5071723;28;20750;-65
2022/07/30 06:55:06;;;;;;;6.07;4.85;;;;;;;37.36;26.60;99431.09;5072357;28;20195;-65
2022/07/30 06:57:34;;;;;;;5.82;4.15;;;;;;;37.35;26.42;99428.72;5070147;28;20645;-67
2022/07/30 07:00:01;;;;;;;7.45;4.20;;;;;;;37.41;26.20;99416.91;5070161;28;20251;-65
2022/07/30 07:02:27;;;;;;;5.47;4.38;;;;;;;37.35;26.31;99417.63;5070575;28;20192;-65
2022/07/30 07:04:54;;;;;;;6.60;4.65;;;;;;;37.31;26.37;99395.38;5071797;28;20192;-64
2022/07/30 07:07:21;;;;;;;8.40;4.30;;;;;;;37.41;26.36;99405.00;5072390;28;20286;-64
2022/07/30 07:09:48;;;;;;;4.47;4.10;;;;;;;36.79;27.17;99400.91;5071953;28;20271;-62
2022/07/30 07:12:14;;;;;;;4.15;3.95;;;;;;;36.79;27.41;99395.38;5072094;28;20276;-64
2022/07/30 07:14:42;;;;;;;6.07;5.10;;;;;;;36.46;27.24;99400.72;5071709;28;20245;-64
2022/07/30 07:17:10;;;;;;;4.75;4.40;;;;;;;36.34;27.62;99401.69;5070560;28;20203;-67
2022/07/30 07:19:37;;;;;;;4.53;4.13;;;;;;;36.50;27.88;99398.81;5069863;28;20214;-65
2022/07/30 07:22:03;;;;;;;9.30;4.93;;;;;;;36.72;27.34;99400.78;5070608;28;20245;-67
2022/07/30 07:24:30;;;;;;;4.68;4.20;;;;;;;36.66;27.37;99402.25;5070362;28;20187;-66
2022/07/30 07:26:57;;;;;;;7.72;5.05;;;;;;;36.55;27.10;99407.59;5070309;28;20219;-66
2022/07/30 07:29:23;;;;;;;6.32;4.47;;;;;;;36.26;28.05;99388.88;5070531;28;20192;-66
2022/07/30 07:31:51;;;;;;;6.85;5.28;;;;;;;36.04;27.60;99383.31;5070018;28;20659;-66
2022/07/30 07:34:18;;;;;;;7.72;4.78;;;;;;;35.99;28.46;99375.31;5069574;28;20632;-67
2022/07/30 07:36:45;;;;;;;7.10;4.53;;;;;;;36.13;28.29;99386.66;5069701;28;20191;-66
2022/07/30 07:39:12;;;;;;;5.35;4.88;;;;;;;36.27;27.76;99395.22;5068263;28;20349;-66
2022/07/30 07:41:39;;;;;;;5.00;4.70;;;;;;;36.30;27.29;99388.97;5070140;28;20196;-65
2022/07/30 07:44:06;;;;;;;4.53;4.32;;;;;;;36.71;26.91;99393.66;5069521;28;20200;-67
2022/07/30 07:46:33;;;;;;;6.07;5.70;;;;;;;37.01;26.01;99392.56;5069934;28;20664;-65
2022/07/30 07:49:01;;;;;;;5.50;4.95;;;;;;;36.69;26.29;99396.00;5069785;28;20281;-65
2022/07/30 07:51:28;;;;;;;5.20;4.90;;;;;;;36.67;26.64;99392.78;5067968;28;20214;-65
2022/07/30 07:53:55;;;;;;;6.28;5.75;;;;;;;36.60;26.79;99382.38;5070903;28;20241;-65
2022/07/30 07:56:21;;;;;;;5.53;4.90;;;;;;;35.98;27.62;99371.75;5069510;28;20196;-65
2022/07/30 07:58:48;;;;;;;7.32;5.00;;;;;;;36.29;27.31;99370.78;5068261;28;20247;-68
2022/07/30 08:01:15;;;;;;;5.35;4.95;;;;;;;36.49;27.44;99369.50;5070340;28;20278;-65
2022/07/30 08:03:42;;;;;;;8.20;5.38;;;;;;;36.66;27.29;99374.56;5070422;28;20253;-65
2022/07/30 08:06:10;;;;;;;5.95;5.38;;;;;;;36.64;27.04;99376.91;5069932;28;20643;-68
2022/07/30 08:08:36;;;;;;;6.60;4.90;;;;;;;36.81;26.68;99368.09;5074481;28;20223;-65
2022/07/30 08:11:05;;;;;;;7.22;5.22;;;;;;;36.88;26.98;99380.09;5074853;28;20207;-65
2022/07/30 08:13:32;;;;;;;4.90;4.55;;;;;;;36.76;26.76;99369.22;5073957;28;20188;-66
2022/07/30 08:15:59;;;;;;;5.28;4.68;;;;;;;36.37;27.12;99366.94;5073487;28;20671;-67
2022/07/30 08:18:25;;;;;;;6.07;5.35;;;;;;;36.31;27.53;99368.44;5073964;28;20670;-66
2022/07/30 08:20:52;;;;;;;7.55;5.40;;;;;;;36.50;27.24;99365.59;5074127;28;20195;-65
2022/07/30 08:23:21;;;;;;;4.90;4.32;;;;;;;36.38;27.06;99360.25;5073783;28;20196;-65
2022/07/30 08:25:48;;;;;;;6.78;4.65;;;;;;;36.07;27.40;99354.91;5072835;28;20192;-65
2022/07/30 08:28:15;;;;;;;5.05;4.47;;;;;;;36.33;27.24;99361.34;5073145;28;20703;-67
2022/07/30 08:30:41;;;;;;;4.50;4.30;;;;;;;36.42;27.65;99359.13;5073357;28;20200;-66
2022/07/30 08:33:08;;;;;;;4.82;4.25;;;;;;;36.65;26.86;99357.16;5072981;28;20424;-65
2022/07/30 08:35:35;;;;;;;4.18;3.78;;;;;;;35.95;28.00;99352.31;5072766;28;20231;-66
2022/07/30 08:38:01;;;;;;;4.25;3.85;;;;;;;36.24;27.76;99346.97;5071774;28;20732;-66
2022/07/30 08:40:33;;;;;;;4.80;4.40;;;;;;;36.30;27.59;99353.00;5073405;28;20200;-64
2022/07/30 08:43:02;;;;;;;6.28;4.30;;;;;;;36.13;27.34;99345.16;5071919;28;20214;-65
2022/07/30 08:45:29;;;;;;;4.38;3.97;;;;;;;36.10;27.50;99345.88;5072462;28;20215;-66
2022/07/30 08:47:59;;;;;;;4.53;3.90;;;;;;;36.41;26.21;99351.19;5072948;28;20273;-64
2022/07/30 08:50:26;;;;;;;5.28;4.85;;;;;;;36.43;26.54;99354.41;5073575;28;20192;-66
2022/07/30 08:52:54;;;;;;;4.65;4.25;;;;;;;36.58;27.09;99345.16;5074202;28;20261;-66
2022/07/30 08:55:22;;;;;;;4.80;4.20;;;;;;;36.70;26.59;99339.47;5073290;28;20668;-65
2022/07/30 08:57:51;;;;;;;4.80;4.40;;;;;;;36.88;25.96;99340.50;5074195;28;20239;-66
2022/07/30 09:00:18;;;;;;;3.65;3.28;;;;;;;36.99;24.85;99341.47;5073403;28;20196;-66
2022/07/30 09:02:45;;;;;;;4.57;4.10;;;;;;;36.99;24.50;99333.16;5072621;28;20250;-66
2022/07/30 09:05:13;;;;;;;5.22;3.90;;;;;;;36.69;26.07;99324.00;5074065;28;20592;-63
2022/07/30 09:07:40;;;;;;;7.75;4.75;;;;;;;36.87;25.81;99314.00;5072786;28;20219;-64
2022/07/30 09:10:09;;;;;;;6.78;4.70;;;;;;;36.74;26.16;99320.91;5074000;28;20192;-65
2022/07/30 09:12:38;;;;;;;3.83;3.67;;;;;;;36.59;25.74;99319.06;5074144;28;20192;-67
2022/07/30 09:15:09;;;;;;;4.70;4.05;;;;;;;36.82;25.65;99319.84;5073636;28;20241;-68
2022/07/30 09:18:01;;;;;;;9.05;8.50;;;;;;;36.98;24.85;99306.59;5073350;28;20238;-65
2022/07/30 09:20:29;;;;;;;7.38;6.97;;;;;;;37.05;24.88;99303.94;5056794;28;20664;-64
2022/07/30 09:22:58;;;;;;;4.35;3.95;;;;;;;37.07;25.58;99296.06;5073628;28;20203;-65
2022/07/30 09:25:34;;;;;;;3.65;3.35;;;;;;;36.64;24.37;99294.66;5073389;28;20195;-65
2022/07/30 09:28:01;;;;;;;3.03;2.80;;;;;;;36.69;24.29;99296.31;5073131;28;20630;-66
2022/07/30 09:30:43;;;;;;;4.03;3.83;;;;;;;36.09;24.63;99289.75;5073718;28;20196;-62
2022/07/30 09:33:10;;;;;;;4.93;3.95;;;;;;;36.05;25.68;99277.03;5073081;28;20191;-64
2022/07/30 09:35:37;;;;;;;4.40;3.75;;;;;;;36.45;25.45;99274.53;5072609;28;20545;-66
2022/07/30 09:38:04;;;;;;;4.97;3.88;;;;;;;36.73;25.29;99275.00;5072331;28;20211;-65
2022/07/30 09:40:31;;;;;;;4.03;3.75;;;;;;;36.77;24.71;99275.84;5072210;28;20250;-65
2022/07/30 09:43:06;;;;;;;3.67;3.47;;;;;;;36.94;24.18;99280.84;5071748;28;20199;-64
2022/07/30 09:45:34;;;;;;;4.18;3.80;;;;;;;35.67;26.06;99271.56;5072473;28;20245;-65
2022/07/30 09:48:01;;;;;;;4.00;3.70;;;;;;;35.82;26.07;99268.75;5073281;28;20230;-62
2022/07/30 09:50:28;;;;;;;4.93;4.00;;;;;;;36.21;25.96;99264.66;5072488;28;20196;-63
2022/07/30 09:53:06;;;;;;;5.50;3.40;;;;;;;36.47;24.87;99266.69;5073167;28;20641;-63
2022/07/30 09:55:35;;;;;;;3.97;3.22;;;;;;;36.21;25.80;99263.88;5071222;28;20652;-64
2022/07/30 09:58:04;;;;;;;3.40;3.20;;;;;;;35.92;24.65;99267.31;5065882;28;20228;-63
2022/07/30 10:00:32;;;;;;;3.60;3.40;;;;;;;36.30;24.42;99261.69;5062075;28;20270;-63
2022/07/30 10:03:02;;;;;;;3.40;3.13;;;;;;;36.29;23.52;99260.09;5064916;28;20199;-65
2022/07/30 10:05:28;;;;;;;3.10;2.83;;;;;;;36.52;24.31;99255.28;5073476;28;20192;-64
2022/07/30 10:07:57;;;;;;;3.30;3.20;;;;;;;36.69;24.53;99254.78;5073644;28;20216;-64
2022/07/30 10:10:26;;;;;;;3.85;2.83;;;;;;;36.90;24.66;99246.75;5073777;28;20203;-66
2022/07/30 10:12:57;;;;;;;4.22;3.40;;;;;;;37.01;24.00;99239.38;5074017;28;20191;-63
2022/07/30 10:15:28;;;;;;;3.58;3.30;;;;;;;37.05;24.25;99245.75;5073301;28;20643;-63
2022/07/30 10:17:56;;;;;;;3.38;3.13;;;;;;;37.11;23.75;99241.50;5073280;28;20191;-63
2022/07/30 10:20:24;;;;;;;3.42;3.22;;;;;;;37.05;24.02;99243.00;5074150;28;20188;-63
2022/07/30 10:22:52;;;;;;;3.20;3.10;;;;;;;37.10;23.64;99242.66;5073475;28;20246;-63
2022/07/30 10:25:20;;;;;;;3.05;2.85;;;;;;;36.93;24.50;99232.97;5073496;28;20636;-64
2022/07/30 10:27:48;;;;;;;3.67;3.35;;;;;;;36.98;25.02;99226.28;5072905;28;20292;-64
2022/07/30 10:30:15;;;;;;;3.97;3.33;;;;;;;36.94;25.25;99220.69;5072621;28;20218;-64
2022/07/30 10:32:42;;;;;;;3.95;3.03;;;;;;;35.92;26.45;99220.28;5060435;28;20196;-64
2022/07/30 10:35:10;;;;;;;3.45;3.15;;;;;;;35.89;26.62;99212.75;5053240;28;20232;-64
2022/07/30 10:37:42;;;;;;;3.60;3.17;;;;;;;36.10;26.30;99205.59;5052946;28;20201;-64
2022/07/30 10:40:18;;;;;;;3.20;3.10;;;;;;;35.82;26.23;99213.44;5053107;28;20243;-64
2022/07/30 10:43:16;;;;;;;3.40;2.88;;;;;;;36.10;25.73;99210.34;5050923;28;20572;-64
2022/07/30 10:45:54;;;;;;;3.78;3.60;;;;;;;36.23;24.38;99206.22;5053731;28;20181;-63
2022/07/30 10:48:22;;;;;;;3.22;2.97;;;;;;;36.55;23.76;99207.50;5053572;28;20299;-63
2022/07/30 10:50:51;;;;;;;3.30;2.90;;;;;;;36.76;24.53;99193.97;5053131;28;20195;-63
2022/07/30 10:53:37;;;;;;;3.83;3.65;;;;;;;36.52;25.62;99197.16;5051662;28;20698;-64
2022/07/30 10:56:15;;;;;;;3.38;3.17;;;;;;;36.69;25.74;99177.25;5053956;28;20235;-64
2022/07/30 10:58:59;;;;;;;3.55;3.25;;;;;;;36.75;25.37;99184.06;5053311;28;20315;-63
2022/07/30 11:01:26;;;;;;;2.88;2.67;;;;;;;36.83;24.83;99178.22;5052648;28;20192;-63
2022/07/30 11:04:19;;;;;;;3.00;2.85;;;;;;;36.87;24.50;99186.59;5052785;28;20193;-63
2022/07/30 11:06:47;;;;;;;3.10;2.90;;;;;;;36.63;24.47;99170.41;5052464;28;20318;-63
2022/07/30 11:09:37;;;;;;;3.03;2.90;;;;;;;36.50;24.54;99171.84;5053124;28;20277;-62
2022/07/30 11:12:05;;;;;;;3.58;3.33;;;;;;;36.48;24.67;99169.44;5052625;28;20258;-63
2022/07/30 11:14:58;;;;;;;3.22;3.03;;;;;;;36.69;25.60;99163.41;5053007;28;20231;-62
2022/07/30 11:17:25;;;;;;;3.30;2.97;;;;;;;36.84;24.73;99159.63;5052126;28;20682;-63
2022/07/30 11:20:10;;;;;;;4.18;2.90;;;;;;;37.06;24.60;99150.38;5052503;28;20192;-63
2022/07/30 11:22:39;;;;;;;3.42;3.15;;;;;;;37.08;24.02;99148.06;5052452;28;20286;-63
2022/07/30 11:25:09;;;;;;;3.22;3.03;;;;;;;37.19;24.18;99157.28;5052154;28;20287;-63
2022/07/30 11:27:38;;;;;;;3.72;3.10;;;;;;;37.29;24.90;99145.53;5051950;28;20657;-63
2022/07/30 11:30:26;;;;;;;3.63;3.00;;;;;;;37.13;25.34;99142.16;5052775;28;20216;-63
2022/07/30 11:32:54;;;;;;;2.85;2.65;;;;;;;37.27;24.87;99139.56;5052057;28;20271;-63
2022/07/30 11:35:23;;;;;;;3.55;3.28;;;;;;;37.25;23.39;99130.84;5052303;28;20192;-63
2022/07/30 11:37:57;;;;;;;3.63;2.60;;;;;;;37.28;23.10;99126.50;5051845;28;20207;-63
2022/07/30 11:40:27;;;;;;;4.70;2.97;;;;;;;37.32;23.66;99136.47;5052443;28;20229;-63
2022/07/30 11:43:16;;;;;;;6.07;3.38;;;;;;;37.09;24.19;99121.94;5051463;28;20554;-63